NORTHERN QUEENS  -  Freeze Warning Freeze Warning        SOUTHERN QUEENS  -  Freeze Warning Freeze Warning      

Active alerts

Northern Queens
  Details for Northern Queens Freeze Warning
Southern Queens
  Details for Southern Queens Freeze Warning


WXM80 ListenWXM80 Stop

You find our weather info also at:

UK Metoffice

WeatherCloud

Weather Underground

Northeastern Weather Network

AWEKAS

Citizen Weather Observer Program (CWOP)

HAMweather, WeatherForYou, PWS Weather


Weather Underground History page Text

Daily Summary for December 19, 2017 Units:  Metric    English   Both
« Previous Day
Next Day »
Daily Weekly Monthly Yearly Custom
  High: Low: Average:
Temperature: 12.4 °C 6.8 °C 9.6 °C
Dew Point: 5.6 °C 3.6 °C 4.5 °C
Humidity: 83 % 60 % 71 %
Wind Speed: 22 km/h 0 km/h 7.2 km/h
Wind Gust: 31.5 km/h - -
Wind:- - SW
Pressure: 1013.1 hPa 1005 hPa -
Precipitation: 0 mm    
Historical Graphs
 
 
Tabular Data for December 19, 2017
Time Temperature Dew Point Pressure Wind Wind Speed Wind Gust Humidity Rainfall Rate (Hourly)
00:03 7.1 °C 3.7 °C 1012.4 hPa SW 7.6 km/h 12.9 km/h 79 % 0 mm
00:04 7.1 °C 3.6 °C 1012.4 hPa WSW 5.8 km/h 14.8 km/h 78 % 0 mm
00:08 7.1 °C 3.7 °C 1012.4 hPa WSW 6 km/h 9.3 km/h 79 % 0 mm
00:11 7.1 °C 3.7 °C 1012.4 hPa SW 7.4 km/h 14.8 km/h 79 % 0 mm
00:16 7.1 °C 3.7 °C 1012.4 hPa SSW 6.3 km/h 11.3 km/h 79 % 0 mm
00:17 7.1 °C 3.7 °C 1012.4 hPa WSW 6 km/h 11.1 km/h 79 % 0 mm
00:22 7.2 °C 3.8 °C 1012.4 hPa SSW 8 km/h 13 km/h 79 % 0 mm
00:23 7.2 °C 3.8 °C 1012.4 hPa SW 7.7 km/h 14.8 km/h 79 % 0 mm
00:24 7.2 °C 3.9 °C 1012.4 hPa SW 6.3 km/h 14.8 km/h 80 % 0 mm
00:29 7.2 °C 3.9 °C 1012.4 hPa SW 4.2 km/h 13 km/h 80 % 0 mm
00:30 7.2 °C 3.9 °C 1012.4 hPa SSW 7.4 km/h 11.3 km/h 80 % 0 mm
00:35 7.2 °C 4 °C 1012.8 hPa WSW 7.2 km/h 13 km/h 80 % 0 mm
00:40 7.2 °C 4 °C 1012.8 hPa WSW 7.2 km/h 12.9 km/h 80 % 0 mm
00:44 7.3 °C 4.1 °C 1012.8 hPa WSW 3.7 km/h 13 km/h 80 % 0 mm
00:48 7.3 °C 4.1 °C 1012.8 hPa WSW 7.4 km/h 13 km/h 80 % 0 mm
00:53 7.3 °C 4.1 °C 1012.8 hPa West 5.6 km/h 9.7 km/h 80 % 0 mm
00:54 7.3 °C 4.1 °C 1012.8 hPa WSW 1.9 km/h 9.3 km/h 80 % 0 mm
00:57 7.3 °C 4.1 °C 1012.8 hPa WSW 3.4 km/h 14.8 km/h 80 % 0 mm
00:59 7.3 °C 4.1 °C 1012.8 hPa West 6.4 km/h 9.7 km/h 80 % 0 mm
01:04 7.4 °C 4.2 °C 1012.8 hPa WSW 6.3 km/h 11.3 km/h 80 % 0 mm
01:05 7.4 °C 4.2 °C 1012.8 hPa WSW 6.3 km/h 13 km/h 80 % 0 mm
01:06 7.4 °C 4.2 °C 1012.8 hPa WSW 0.6 km/h 9.3 km/h 80 % 0 mm
01:10 7.4 °C 4.2 °C 1012.8 hPa WSW 6.8 km/h 17.7 km/h 80 % 0 mm
01:12 7.4 °C 4.2 °C 1012.8 hPa SW 8.7 km/h 18.5 km/h 80 % 0 mm
01:16 7.4 °C 4.2 °C 1012.8 hPa SW 7.1 km/h 14.5 km/h 80 % 0 mm
01:21 7.4 °C 4.2 °C 1012.8 hPa WSW 9.3 km/h 13 km/h 80 % 0 mm
01:26 7.4 °C 4.2 °C 1012.8 hPa WSW 9 km/h 13 km/h 80 % 0 mm
01:31 7.4 °C 4.2 °C 1012.8 hPa SW 9.2 km/h 13 km/h 80 % 0 mm
01:36 7.4 °C 4.2 °C 1012.8 hPa West 6.6 km/h 13 km/h 80 % 0 mm
01:41 7.4 °C 4.2 °C 1012.8 hPa WSW 7.1 km/h 9.3 km/h 80 % 0 mm
01:42 7.4 °C 4.2 °C 1012.8 hPa SW 4.3 km/h 11.1 km/h 80 % 0 mm
01:47 7.4 °C 4.2 °C 1012.8 hPa WSW 4.3 km/h 7.4 km/h 80 % 0 mm
01:48 7.3 °C 4.1 °C 1012.8 hPa WSW 4.5 km/h 7.4 km/h 80 % 0 mm
01:53 7.3 °C 4.1 °C 1012.8 hPa WSW 3.4 km/h 5.6 km/h 80 % 0 mm
01:54 7.3 °C 4.1 °C 1012.8 hPa WSW 4.2 km/h 8 km/h 80 % 0 mm
01:59 7.3 °C 4.1 °C 1012.8 hPa WSW 2.6 km/h 7.4 km/h 80 % 0 mm
02:00 7.3 °C 4.1 °C 1012.8 hPa South 3.9 km/h 5.6 km/h 80 % 0 mm
02:01 7.3 °C 4.1 °C 1012.8 hPa SW 2.9 km/h 6.4 km/h 80 % 0 mm
02:06 7.3 °C 4.2 °C 1012.8 hPa WSW 1 km/h 5.6 km/h 81 % 0 mm
02:11 7.3 °C 4.2 °C 1012.4 hPa SW 1.6 km/h 5.6 km/h 81 % 0 mm
02:12 7.3 °C 4.2 °C 1012.8 hPa SW 2.1 km/h 5.6 km/h 81 % 0 mm
02:17 7.3 °C 4.2 °C 1012.8 hPa West 2.1 km/h 5.6 km/h 81 % 0 mm
02:21 7.2 °C 4.2 °C 1012.8 hPa WSW 3.2 km/h 8 km/h 81 % 0 mm
02:25 7.2 °C 4.2 °C 1012.8 hPa SW 0.5 km/h 1.9 km/h 81 % 0 mm
02:27 7.2 °C 4.2 °C 1012.8 hPa Calm   1.9 km/h 81 % 0 mm
02:31 7.2 °C 4.1 °C 1012.8 hPa SW 0.3 km/h 1.9 km/h 81 % 0 mm
02:34 7.2 °C 4.1 °C 1012.8 hPa WSW 3.7 km/h 5.6 km/h 81 % 0 mm
02:39 7.2 °C 4.1 °C 1013.1 hPa WNW 2.6 km/h 4.8 km/h 81 % 0 mm
02:42 7.2 °C 4.1 °C 1013.1 hPa WSW 6.4 km/h 9.7 km/h 81 % 0 mm
02:45 7.1 °C 4.2 °C 1013.1 hPa WSW 2.9 km/h 5.6 km/h 82 % 0 mm
02:50 7.1 °C 4.2 °C 1012.8 hPa SW 4.7 km/h 9.3 km/h 82 % 0 mm
02:52 7.1 °C 4.2 °C 1013.1 hPa WSW 2.7 km/h 5.6 km/h 82 % 0 mm
02:53 7.1 °C 4.2 °C 1012.8 hPa WSW 3.1 km/h 6.4 km/h 82 % 0 mm
02:58 7.1 °C 4.2 °C 1012.8 hPa WSW 4.2 km/h 5.6 km/h 82 % 0 mm
02:59 7.1 °C 4.2 °C 1012.8 hPa WSW 2.4 km/h 5.6 km/h 82 % 0 mm
03:04 7.1 °C 4.2 °C 1012.8 hPa WSW 1 km/h 3.7 km/h 82 % 0 mm
03:06 7.1 °C 4.2 °C 1012.8 hPa WSW 1.6 km/h 9.7 km/h 82 % 0 mm
03:11 7.1 °C 4.2 °C 1012.8 hPa Calm   3.2 km/h 82 % 0 mm
03:14 7.1 °C 4.2 °C 1012.8 hPa SW 1 km/h 9.3 km/h 82 % 0 mm
03:19 7.1 °C 4.2 °C 1012.8 hPa WSW 0.3 km/h 3.7 km/h 82 % 0 mm
03:24 7.1 °C 4.2 °C 1012.4 hPa WSW 2.7 km/h 7.4 km/h 82 % 0 mm
03:29 7.1 °C 4.4 °C 1012.4 hPa SW 1 km/h 5.6 km/h 83 % 0 mm
03:34 7.1 °C 4.4 °C 1012.4 hPa WSW 1.4 km/h 5.6 km/h 83 % 0 mm
03:37 7.1 °C 4.4 °C 1012.4 hPa SW 4.2 km/h 9.3 km/h 83 % 0 mm
03:41 7.1 °C 4.4 °C 1012.4 hPa WSW 5.6 km/h 9.3 km/h 83 % 0 mm
03:46 7 °C 4.3 °C 1012.4 hPa WSW 3.1 km/h 7.4 km/h 83 % 0 mm
03:48 7.1 °C 4.4 °C 1012.1 hPa SSW 4.8 km/h 9.3 km/h 83 % 0 mm
03:53 7.1 °C 4.4 °C 1012.1 hPa SW 2.7 km/h 5.6 km/h 83 % 0 mm
03:54 7.1 °C 4.4 °C 1012.4 hPa WSW 5.1 km/h 9.3 km/h 83 % 0 mm
03:55 7.1 °C 4.4 °C 1012.1 hPa WSW 4.5 km/h 9.3 km/h 83 % 0 mm
04:00 7.1 °C 4.4 °C 1012.1 hPa SW 2.9 km/h 5.6 km/h 83 % 0 mm
04:01 7.1 °C 4.4 °C 1012.4 hPa SSW 4.2 km/h 8 km/h 83 % 0 mm
04:04 7.1 °C 4.4 °C 1012.1 hPa SW 0.5 km/h 9.3 km/h 83 % 0 mm
04:09 7.1 °C 4.4 °C 1012.4 hPa WSW 3.2 km/h 11.1 km/h 83 % 0 mm
04:14 7.1 °C 4.4 °C 1012.4 hPa SW 2.9 km/h 5.6 km/h 83 % 0 mm
04:15 7.1 °C 4.4 °C 1012.4 hPa WSW 3.7 km/h 7.4 km/h 83 % 0 mm
04:20 7.1 °C 4.4 °C 1012.4 hPa WSW 1.1 km/h 3.7 km/h 83 % 0 mm
04:24 7.2 °C 4.4 °C 1012.4 hPa WSW 1.9 km/h 3.7 km/h 83 % 0 mm
04:29 7.2 °C 4.4 °C 1012.1 hPa SW 1.6 km/h 5.6 km/h 83 % 0 mm
04:30 7.2 °C 4.4 °C 1012.1 hPa SW 1.8 km/h 5.6 km/h 83 % 0 mm
04:35 7.2 °C 4.4 °C 1012.1 hPa WSW 3.4 km/h 5.6 km/h 83 % 0 mm
04:40 7.2 °C 4.4 °C 1012.1 hPa WSW 3.2 km/h 5.6 km/h 83 % 0 mm
04:45 7.2 °C 4.4 °C 1012.4 hPa WSW 6.8 km/h 13 km/h 83 % 0 mm
04:50 7.2 °C 4.5 °C 1012.4 hPa WSW 3.5 km/h 5.6 km/h 83 % 0 mm
04:52 7.2 °C 4.5 °C 1012.4 hPa WSW 2.4 km/h 6.4 km/h 83 % 0 mm
04:54 7.2 °C 4.5 °C 1012.1 hPa WSW 3.5 km/h 12.9 km/h 83 % 0 mm
04:59 7.3 °C 4.6 °C 1012.4 hPa SSW 3.1 km/h 8 km/h 83 % 0 mm
05:00 7.3 °C 4.6 °C 1012.4 hPa SW 4.8 km/h 7.4 km/h 83 % 0 mm
05:05 7.3 °C 4.6 °C 1012.4 hPa WSW 3.7 km/h 5.6 km/h 83 % 0 mm
05:07 7.3 °C 4.6 °C 1012.4 hPa WSW 4 km/h 7.4 km/h 83 % 0 mm
05:12 7.3 °C 4.6 °C 1012.1 hPa WSW 1.3 km/h 3.7 km/h 83 % 0 mm
05:14 7.3 °C 4.6 °C 1012.4 hPa SW 5.6 km/h 7.4 km/h 83 % 0 mm
05:15 7.3 °C 4.6 °C 1012.4 hPa SW 2.3 km/h 9.3 km/h 83 % 0 mm
05:19 7.3 °C 4.4 °C 1012.4 hPa SW 5.5 km/h 11.1 km/h 82 % 0 mm
05:22 7.3 °C 4.4 °C 1012.4 hPa SW 5 km/h 9.7 km/h 82 % 0 mm
05:27 7.3 °C 4.4 °C 1012.4 hPa WSW 8 km/h 13 km/h 82 % 0 mm
05:32 7.4 °C 4.5 °C 1012.4 hPa SSW 6.6 km/h 8 km/h 82 % 0 mm
05:37 7.4 °C 4.6 °C 1012.4 hPa West 3.4 km/h 6.4 km/h 82 % 0 mm
05:38 7.4 °C 4.6 °C 1012.4 hPa WSW 5.1 km/h 7.4 km/h 82 % 0 mm
05:43 7.4 °C 4.6 °C 1012.4 hPa SSW 4.8 km/h 7.4 km/h 82 % 0 mm
05:44 7.4 °C 4.6 °C 1012.4 hPa SSW 4 km/h 7.4 km/h 82 % 0 mm
05:49 7.5 °C 4.6 °C 1012.4 hPa West 7.7 km/h 11.1 km/h 82 % 0 mm
05:53 7.6 °C 4.5 °C 1012.4 hPa SW 3.9 km/h 6.4 km/h 81 % 0 mm
05:57 7.6 °C 4.5 °C 1012.4 hPa WSW 6.3 km/h 7.4 km/h 81 % 0 mm
05:59 7.6 °C 4.6 °C 1012.4 hPa WSW 2.7 km/h 11.1 km/h 81 % 0 mm
06:04 7.6 °C 4.6 °C 1012.4 hPa WSW 0.3 km/h 5.6 km/h 81 % 0 mm
06:07 7.7 °C 4.6 °C 1012.4 hPa WSW 1 km/h 1.6 km/h 81 % 0 mm
06:10 7.7 °C 4.6 °C 1012.4 hPa WSW 1 km/h 4.8 km/h 81 % 0 mm
06:15 7.7 °C 4.6 °C 1012.4 hPa SW 3.1 km/h 5.6 km/h 81 % 0 mm
06:20 7.7 °C 4.6 °C 1012.4 hPa SW 2.6 km/h 7.4 km/h 81 % 0 mm
06:21 7.7 °C 4.6 °C 1012.4 hPa SW 0.3 km/h 1.9 km/h 81 % 0 mm
06:26 7.7 °C 4.4 °C 1012.4 hPa SW 4.5 km/h 5.6 km/h 80 % 0 mm
06:29 7.7 °C 4.4 °C 1012.1 hPa SW 2.6 km/h 9.3 km/h 80 % 0 mm
06:34 7.6 °C 4.4 °C 1012.4 hPa West 4.3 km/h 7.4 km/h 80 % 0 mm
06:38 7.6 °C 4.4 °C 1012.4 hPa SW 0.2 km/h 7.4 km/h 80 % 0 mm
06:44 7.6 °C 4.3 °C 1012.4 hPa SW 4.3 km/h 9.3 km/h 80 % 0 mm
06:48 7.6 °C 4.3 °C 1012.4 hPa SW 3.1 km/h 8 km/h 80 % 0 mm
06:51 7.5 °C 4.3 °C 1012.4 hPa SW 4.8 km/h 5.6 km/h 80 % 0 mm
06:56 7.4 °C 4.2 °C 1012.1 hPa WSW 1.9 km/h 5.6 km/h 80 % 0 mm
06:57 7.4 °C 4.2 °C 1012.1 hPa WSW 1.3 km/h 5.6 km/h 80 % 0 mm
07:02 7.4 °C 4.4 °C 1012.1 hPa SSW 4 km/h 7.4 km/h 81 % 0 mm
07:07 7.4 °C 4.3 °C 1012.1 hPa SW 2.6 km/h 5.6 km/h 81 % 0 mm
07:08 7.4 °C 4.3 °C 1012.1 hPa SW 1.8 km/h 5.6 km/h 81 % 0 mm
07:13 7.3 °C 4.3 °C 1012.1 hPa SW 3.1 km/h 5.6 km/h 81 % 0 mm
07:18 7.3 °C 4.3 °C 1012.1 hPa SSW 4 km/h 5.6 km/h 81 % 0 mm
07:20 7.3 °C 4.2 °C 1011.7 hPa SSW 2.1 km/h 5.6 km/h 81 % 0 mm
07:25 7.2 °C 4.2 °C 1011.7 hPa SW 2.9 km/h 5.6 km/h 81 % 0 mm
07:26 7.3 °C 4.2 °C 1011.7 hPa SSW 3.2 km/h 8 km/h 81 % 0 mm
07:31 7.2 °C 4.2 °C 1012.1 hPa Calm   4.8 km/h 81 % 0 mm
07:36 7.1 °C 4.1 °C 1011.7 hPa SSW 0.8 km/h 5.6 km/h 81 % 0 mm
07:41 7.1 °C 4 °C 1012.1 hPa SW 4.5 km/h 5.6 km/h 81 % 0 mm
07:43 7.1 °C 4 °C 1012.1 hPa South 1 km/h 5.6 km/h 81 % 0 mm
07:49 6.9 °C 3.9 °C 1012.1 hPa SW 2.4 km/h 5.6 km/h 81 % 0 mm
07:54 6.9 °C 4 °C 1011.7 hPa SSW 3.5 km/h 7.4 km/h 82 % 0 mm
07:55 6.8 °C 4 °C 1012.1 hPa SSW 2.3 km/h 5.6 km/h 82 % 0 mm
08:00 6.8 °C 4 °C 1011.7 hPa SW 1 km/h 3.7 km/h 82 % 0 mm
08:01 6.8 °C 4 °C 1011.7 hPa SSW 2.7 km/h 4.8 km/h 82 % 0 mm
08:06 6.8 °C 4.2 °C 1012.1 hPa SSW 3.9 km/h 9.3 km/h 83 % 0 mm
08:11 6.8 °C 4.2 °C 1012.1 hPa WSW 1.9 km/h 7.4 km/h 83 % 0 mm
08:15 6.8 °C 4.2 °C 1012.1 hPa WSW 4 km/h 9.3 km/h 83 % 0 mm
08:20 6.9 °C 4.3 °C 1011.7 hPa WSW 1.9 km/h 3.7 km/h 83 % 0 mm
08:21 6.9 °C 4.3 °C 1011.7 hPa SW 5.5 km/h 9.3 km/h 83 % 0 mm
08:26 7.1 °C 4.4 °C 1011.7 hPa SW 4 km/h 5.6 km/h 83 % 0 mm
08:31 7.2 °C 4.4 °C 1012.1 hPa SSW 4 km/h 11.1 km/h 83 % 0 mm
08:34 7.2 °C 4.5 °C 1012.1 hPa WSW 2.1 km/h 7.4 km/h 83 % 0 mm
08:39 7.4 °C 4.7 °C 1012.1 hPa SW 3.5 km/h 9.3 km/h 83 % 0 mm
08:44 7.6 °C 4.7 °C 1012.1 hPa SW 4.7 km/h 7.4 km/h 82 % 0 mm
08:46 7.6 °C 4.7 °C 1012.1 hPa WSW 7.9 km/h 11.1 km/h 82 % 0 mm
08:48 7.7 °C 4.8 °C 1012.1 hPa SW 5.6 km/h 11.1 km/h 82 % 0 mm
08:53 7.8 °C 4.7 °C 1012.1 hPa SW 8.7 km/h 16.7 km/h 81 % 0 mm
08:54 7.8 °C 4.8 °C 1012.1 hPa SW 8.7 km/h 16.7 km/h 81 % 0 mm
08:59 8.1 °C 5 °C 1012.1 hPa SW 6.3 km/h 9.7 km/h 81 % 0 mm
09:00 8.1 °C 5 °C 1012.1 hPa SW 9.3 km/h 19.3 km/h 81 % 0 mm
09:05 8.2 °C 5 °C 1012.1 hPa WSW 4.3 km/h 7.4 km/h 80 % 0 mm
09:06 8.3 °C 5.1 °C 1012.1 hPa SW 5.5 km/h 14.5 km/h 80 % 0 mm
09:11 8.4 °C 5 °C 1012.1 hPa SW 10.1 km/h 14.8 km/h 79 % 0 mm
09:15 8.6 °C 5.1 °C 1012.1 hPa SSW 5.8 km/h 14.8 km/h 79 % 0 mm
09:16 8.6 °C 5.2 °C 1012.1 hPa SW 7.4 km/h 19.3 km/h 79 % 0 mm
09:21 8.7 °C 5.3 °C 1012.1 hPa South 3.1 km/h 5.6 km/h 79 % 0 mm
09:26 8.8 °C 5.4 °C 1012.1 hPa WSW 5 km/h 9.3 km/h 79 % 0 mm
09:27 8.8 °C 5.4 °C 1011.7 hPa SSW 5.6 km/h 8 km/h 79 % 0 mm
09:32 8.9 °C 5.3 °C 1012.1 hPa South 7.6 km/h 16.7 km/h 78 % 0 mm
09:33 9 °C 5.4 °C 1012.1 hPa SSW 9 km/h 13 km/h 78 % 0 mm
09:38 9.2 °C 5.3 °C 1012.1 hPa WSW 8.5 km/h 16.1 km/h 77 % 0 mm
09:43 9.4 °C 5.6 °C 1012.1 hPa West 11.7 km/h 18.5 km/h 77 % 0 mm
09:44 9.4 °C 5.4 °C 1012.1 hPa WSW 7.7 km/h 18.5 km/h 76 % 0 mm
09:49 9.6 °C 5.6 °C 1012.1 hPa SW 8.2 km/h 9.3 km/h 76 % 0 mm
09:50 9.7 °C 5.6 °C 1012.1 hPa WSW 5.3 km/h 9.7 km/h 76 % 0 mm
09:56 9.8 °C 5.6 °C 1012.1 hPa WSW 9.3 km/h 13 km/h 75 % 0 mm
09:57 9.9 °C 5.4 °C 1012.1 hPa WSW 6.4 km/h 18.5 km/h 74 % 0 mm
10:02 10.1 °C 5.5 °C 1012.1 hPa SSW 9.2 km/h 18.5 km/h 73 % 0 mm
10:03 10.2 °C 5.6 °C 1012.1 hPa West 9.7 km/h 16.1 km/h 73 % 0 mm
10:05 10.2 °C 5.4 °C 1012.1 hPa WSW 13.4 km/h 16.7 km/h 72 % 0 mm
10:10 10.3 °C 5.5 °C 1012.1 hPa SW 10.3 km/h 17.7 km/h 72 % 0 mm
10:15 10.4 °C 5.3 °C 1011.7 hPa SW 9.8 km/h 18.5 km/h 71 % 0 mm
10:21 10.5 °C 5.4 °C 1011.7 hPa WSW 8 km/h 24.1 km/h 71 % 0 mm
10:26 10.6 °C 5.4 °C 1011.7 hPa West 10.9 km/h 16.7 km/h 70 % 0 mm
10:31 10.7 °C 5.2 °C 1011.4 hPa SW 14.2 km/h 24.1 km/h 69 % 0 mm
10:36 10.7 °C 5.3 °C 1011.4 hPa WSW 9.5 km/h 17.7 km/h 69 % 0 mm
10:38 10.8 °C 5.1 °C 1011.4 hPa WSW 8.4 km/h 16.7 km/h 68 % 0 mm
10:43 10.8 °C 5.2 °C 1011.4 hPa West 7.4 km/h 17.7 km/h 68 % 0 mm
10:44 10.8 °C 4.9 °C 1011.4 hPa WSW 10.5 km/h 18.5 km/h 67 % 0 mm
10:50 10.9 °C 5.1 °C 1011.4 hPa SW 5.6 km/h 22.5 km/h 67 % 0 mm
10:51 11 °C 5.1 °C 1011.4 hPa WSW 15.8 km/h 22.5 km/h 67 % 0 mm
10:55 11.1 °C 5 °C 1011.4 hPa SW 12.6 km/h 24.1 km/h 66 % 0 mm
11:00 11.3 °C 5.2 °C 1011.1 hPa WSW 6.4 km/h 20.4 km/h 66 % 0 mm
11:06 11.3 °C 5 °C 1011.1 hPa WSW 12.9 km/h 27.4 km/h 65 % 0 mm
11:08 11.4 °C 5.3 °C 1010.7 hPa SW 13.2 km/h 25.9 km/h 66 % 0 mm
11:13 11.6 °C 5.4 °C 1010.7 hPa SW 10 km/h 24.1 km/h 66 % 0 mm
11:14 11.6 °C 5.2 °C 1010.7 hPa SW 12.9 km/h 24.1 km/h 65 % 0 mm
11:19 11.6 °C 5.2 °C 1010.4 hPa WSW 10 km/h 31.5 km/h 65 % 0 mm
11:22 11.6 °C 5 °C 1010.4 hPa SW 22 km/h 30.6 km/h 64 % 0 mm
11:27 11.6 °C 5.2 °C 1010.4 hPa SW 9.3 km/h 11.1 km/h 65 % 0 mm
11:29 11.6 °C 5.2 °C 1010.4 hPa SW 6.6 km/h 14.8 km/h 65 % 0 mm
11:34 11.6 °C 5.2 °C 1010.4 hPa WSW 12.6 km/h 22.2 km/h 65 % 0 mm
11:39 11.6 °C 5.2 °C 1010.4 hPa SSW 13.7 km/h 22.2 km/h 65 % 0 mm
11:41 11.6 °C 5.2 °C 1010.4 hPa SSW 11.1 km/h 18.5 km/h 65 % 0 mm
11:46 11.7 °C 5.1 °C 1010 hPa West 13 km/h 22.5 km/h 64 % 0 mm
11:48 11.7 °C 5.1 °C 1010 hPa SW 15.3 km/h 22.2 km/h 64 % 0 mm
11:53 11.7 °C 5.3 °C 1010 hPa WSW 15.6 km/h 25.9 km/h 65 % 0 mm
11:57 11.7 °C 5.3 °C 1009.7 hPa SSW 13.2 km/h 25.9 km/h 65 % 0 mm
12:02 11.8 °C 5.2 °C 1009.4 hPa West 11.1 km/h 22.2 km/h 64 % 0 mm
12:03 11.8 °C 5.2 °C 1009.4 hPa SW 8 km/h 13 km/h 64 % 0 mm
12:08 11.9 °C 5.3 °C 1009.4 hPa SSW 7.1 km/h 14.5 km/h 64 % 0 mm
12:13 12.1 °C 5.5 °C 1009 hPa WSW 14.2 km/h 25.9 km/h 64 % 0 mm
12:18 12.2 °C 5.4 °C 1009 hPa SW 12.1 km/h 27.8 km/h 63 % 0 mm
12:24 12.3 °C 5.5 °C 1009 hPa West 10.9 km/h 20.4 km/h 63 % 0 mm
12:25 12.4 °C 5.6 °C 1009 hPa SSW 6.8 km/h 20.4 km/h 63 % 0 mm
12:30 12.4 °C 5.6 °C 1009 hPa WNW 10.1 km/h 25.9 km/h 63 % 0 mm
12:31 12.4 °C 5.6 °C 1009 hPa WSW 9.7 km/h 25.7 km/h 63 % 0 mm
12:36 12.4 °C 5.6 °C 1009 hPa WSW 12.9 km/h 25.7 km/h 63 % 0 mm
12:37 12.3 °C 5.5 °C 1009 hPa SW 19.2 km/h 29.6 km/h 63 % 0 mm
12:40 12.3 °C 5.4 °C 1009 hPa SW 16.3 km/h 20.4 km/h 63 % 0 mm
12:45 12.3 °C 5.4 °C 1009 hPa WSW 15 km/h 24.1 km/h 63 % 0 mm
12:49 12.3 °C 5.4 °C 1008.7 hPa SW 11.1 km/h 18.5 km/h 63 % 0 mm
12:54 12.2 °C 5.6 °C 1008.7 hPa WSW 7.9 km/h 16.7 km/h 64 % 0 mm
12:56 12.2 °C 5.6 °C 1008.7 hPa SW 9.2 km/h 17.7 km/h 64 % 0 mm
12:59 12.2 °C 5.6 °C 1008.7 hPa West 7.6 km/h 16.7 km/h 64 % 0 mm
13:04 12.3 °C 5.4 °C 1008.4 hPa West 9.2 km/h 16.7 km/h 63 % 0 mm
13:09 12.3 °C 5.4 °C 1008.4 hPa WSW 15.4 km/h 29.6 km/h 63 % 0 mm
13:11 12.3 °C 5.2 °C 1008.4 hPa WSW 7.6 km/h 18.5 km/h 62 % 0 mm
13:16 12.3 °C 5.2 °C 1008.4 hPa WSW 11.9 km/h 24.1 km/h 62 % 0 mm
13:17 12.3 °C 5.2 °C 1008.4 hPa West 9.2 km/h 18.5 km/h 62 % 0 mm
13:22 12.3 °C 5.5 °C 1008.4 hPa West 6.4 km/h 8 km/h 63 % 0 mm
13:25 12.3 °C 5.5 °C 1008.4 hPa WNW 11.4 km/h 20.4 km/h 63 % 0 mm
13:30 12.3 °C 5.3 °C 1008 hPa WSW 7.1 km/h 13 km/h 62 % 0 mm
13:33 12.3 °C 5.2 °C 1008 hPa SW 12.4 km/h 27.8 km/h 62 % 0 mm
13:38 12.3 °C 5.4 °C 1008 hPa WSW 8.5 km/h 16.1 km/h 63 % 0 mm
13:43 12.2 °C 5.4 °C 1008 hPa SW 7.7 km/h 19.3 km/h 63 % 0 mm
13:44 12.2 °C 5.4 °C 1008 hPa West 9.2 km/h 18.5 km/h 63 % 0 mm
13:49 12.2 °C 5.4 °C 1008 hPa SW 10.6 km/h 18.5 km/h 63 % 0 mm
13:51 12.2 °C 5.2 °C 1008 hPa SW 4.2 km/h 18.5 km/h 62 % 0 mm
13:57 12.2 °C 5.2 °C 1008 hPa WSW 12.7 km/h 18.5 km/h 62 % 0 mm
13:58 12.2 °C 5.2 °C 1008 hPa WSW 5.3 km/h 11.1 km/h 62 % 0 mm
13:59 12.2 °C 5.1 °C 1008 hPa WSW 11.4 km/h 17.7 km/h 62 % 0 mm
14:05 12.2 °C 5.1 °C 1008 hPa WSW 6 km/h 13 km/h 62 % 0 mm
14:07 12.1 °C 4.8 °C 1007.7 hPa WNW 6.1 km/h 7.4 km/h 61 % 0 mm
14:10 12.1 °C 4.8 °C 1007.7 hPa SW 7.6 km/h 13 km/h 61 % 0 mm
14:12 12.1 °C 4.8 °C 1007.7 hPa WSW 6.4 km/h 14.8 km/h 61 % 0 mm
14:17 12.1 °C 4.8 °C 1007.7 hPa West 5.1 km/h 11.1 km/h 61 % 0 mm
14:19 12.1 °C 4.8 °C 1007.7 hPa West 6.9 km/h 14.8 km/h 61 % 0 mm
14:23 12.1 °C 4.8 °C 1007.7 hPa SSW 4.2 km/h 9.3 km/h 61 % 0 mm
14:25 12 °C 4.7 °C 1007.7 hPa SSW 5.6 km/h 12.9 km/h 61 % 0 mm
14:29 12 °C 4.7 °C 1007.7 hPa West 13.2 km/h 24.1 km/h 61 % 0 mm
14:30 12 °C 4.7 °C 1007.7 hPa SW 6.4 km/h 20.4 km/h 61 % 0 mm
14:35 11.9 °C 4.7 °C 1007.7 hPa West 7.6 km/h 18.5 km/h 61 % 0 mm
14:39 11.9 °C 4.7 °C 1007.7 hPa WSW 5.8 km/h 13 km/h 61 % 0 mm
14:44 12 °C 4.7 °C 1007.7 hPa SSW 10.5 km/h 14.8 km/h 61 % 0 mm
14:45 11.9 °C 4.4 °C 1007.3 hPa West 9.3 km/h 14.8 km/h 60 % 0 mm
14:46 11.9 °C 4.4 °C 1007.3 hPa SW 9.7 km/h 16.1 km/h 60 % 0 mm
14:51 12 °C 4.4 °C 1007.7 hPa WSW 10.5 km/h 22.2 km/h 60 % 0 mm
14:54 12 °C 4.4 °C 1007.3 hPa West 6.3 km/h 13 km/h 60 % 0 mm
14:55 12 °C 4.7 °C 1007.3 hPa WSW 6.9 km/h 13 km/h 61 % 0 mm
15:00 12 °C 4.4 °C 1007.3 hPa WSW 5.3 km/h 13 km/h 60 % 0 mm
15:05 12.1 °C 4.5 °C 1007.7 hPa South 6 km/h 14.8 km/h 60 % 0 mm
15:10 12.1 °C 4.5 °C 1007.3 hPa WSW 11.6 km/h 22.2 km/h 60 % 0 mm
15:15 12.1 °C 4.5 °C 1007.3 hPa WSW 6.1 km/h 16.7 km/h 60 % 0 mm
15:20 12.1 °C 4.5 °C 1007.3 hPa SSW 14 km/h 18.5 km/h 60 % 0 mm
15:26 12.1 °C 4.5 °C 1007.3 hPa South 9 km/h 13 km/h 60 % 0 mm
15:31 12 °C 4.4 °C 1007.3 hPa SW 12.6 km/h 18.5 km/h 60 % 0 mm
15:36 12 °C 4.4 °C 1007.3 hPa SW 6 km/h 13 km/h 60 % 0 mm
15:38 12 °C 4.4 °C 1007.3 hPa SW 8.7 km/h 9.3 km/h 60 % 0 mm
15:39 11.9 °C 4.4 °C 1007.3 hPa WSW 5.5 km/h 18.5 km/h 60 % 0 mm
15:45 11.9 °C 4.4 °C 1007.3 hPa SW 5 km/h 16.7 km/h 60 % 0 mm
15:48 11.9 °C 4.4 °C 1007 hPa SSW 9.3 km/h 14.8 km/h 60 % 0 mm
15:50 11.9 °C 4.4 °C 1007.3 hPa SW 8.4 km/h 14.8 km/h 60 % 0 mm
15:54 11.8 °C 4.3 °C 1007 hPa SW 4.7 km/h 8 km/h 60 % 0 mm
15:59 11.8 °C 4.3 °C 1007 hPa South 4.7 km/h 8 km/h 60 % 0 mm
16:05 11.8 °C 4.3 °C 1007 hPa WSW 4.5 km/h 9.3 km/h 60 % 0 mm
16:07 11.7 °C 4.4 °C 1007 hPa SSW 6.4 km/h 11.1 km/h 61 % 0 mm
16:11 11.7 °C 4.4 °C 1007 hPa SW 4.8 km/h 19.3 km/h 61 % 0 mm
16:16 11.6 °C 4.3 °C 1007 hPa SW 3.2 km/h 16.1 km/h 61 % 0 mm
16:21 11.6 °C 4.1 °C 1007 hPa SW 6.4 km/h 11.1 km/h 60 % 0 mm
16:23 11.6 °C 4.3 °C 1006.7 hPa WSW 8 km/h 17.7 km/h 61 % 0 mm
16:25 11.5 °C 4.2 °C 1006.7 hPa SW 4.7 km/h 13 km/h 61 % 0 mm
16:30 11.4 °C 4.2 °C 1006.7 hPa WSW 6.6 km/h 13 km/h 61 % 0 mm
16:31 11.4 °C 4.1 °C 1007 hPa SSW 4.8 km/h 7.4 km/h 61 % 0 mm
16:36 11.3 °C 3.8 °C 1006.7 hPa WSW 5.3 km/h 14.8 km/h 60 % 0 mm
16:38 11.3 °C 3.8 °C 1006.7 hPa SW 9.7 km/h 11.3 km/h 60 % 0 mm
16:39 11.3 °C 3.8 °C 1006.7 hPa WSW 10.8 km/h 18.5 km/h 60 % 0 mm
16:44 11.2 °C 3.9 °C 1006.7 hPa WSW 6.1 km/h 11.3 km/h 61 % 0 mm
16:46 11.2 °C 3.9 °C 1006.7 hPa WSW 9.3 km/h 20.4 km/h 61 % 0 mm
16:51 11.2 °C 3.9 °C 1006.7 hPa WSW 8.2 km/h 13 km/h 61 % 0 mm
16:53 11.2 °C 3.9 °C 1006.7 hPa SW 4.3 km/h 11.1 km/h 61 % 0 mm
16:58 11.1 °C 3.9 °C 1006.7 hPa SW 7.6 km/h 13 km/h 61 % 0 mm
16:59 11.1 °C 3.9 °C 1006.7 hPa SW 8 km/h 13 km/h 61 % 0 mm
17:04 11.1 °C 3.9 °C 1006.7 hPa West 8.4 km/h 13 km/h 61 % 0 mm
17:05 11.1 °C 3.9 °C 1006.7 hPa SSW 5.8 km/h 13 km/h 61 % 0 mm
17:10 11.1 °C 4.1 °C 1006.7 hPa WSW 7.1 km/h 11.1 km/h 62 % 0 mm
17:11 11.1 °C 3.8 °C 1006.7 hPa SW 7.7 km/h 9.7 km/h 61 % 0 mm
17:16 11.1 °C 4.1 °C 1007 hPa SSW 5.3 km/h 7.4 km/h 62 % 0 mm
17:18 11.1 °C 4.1 °C 1006.7 hPa SW 4.3 km/h 9.3 km/h 62 % 0 mm
17:23 11 °C 4 °C 1006.7 hPa SSW 5 km/h 11.1 km/h 62 % 0 mm
17:27 10.9 °C 3.9 °C 1006.7 hPa SSW 5.3 km/h 9.7 km/h 62 % 0 mm
17:32 10.9 °C 3.9 °C 1007 hPa SW 4 km/h 9.3 km/h 62 % 0 mm
17:33 10.9 °C 3.9 °C 1007 hPa SW 6.4 km/h 6.4 km/h 62 % 0 mm
17:38 10.8 °C 3.8 °C 1007 hPa SW 2.7 km/h 7.4 km/h 62 % 0 mm
17:43 10.8 °C 4 °C 1007 hPa SSW 3.5 km/h 16.7 km/h 63 % 0 mm
17:44 10.8 °C 4 °C 1007 hPa SSW 4.5 km/h 16.7 km/h 63 % 0 mm
17:45 10.8 °C 4 °C 1007 hPa South 7.1 km/h 11.1 km/h 63 % 0 mm
17:50 10.7 °C 3.9 °C 1007 hPa SSW 6.4 km/h 11.1 km/h 63 % 0 mm
17:51 10.7 °C 3.9 °C 1007 hPa SSW 3.1 km/h 5.6 km/h 63 % 0 mm
17:56 10.7 °C 3.9 °C 1007 hPa SSW 6.1 km/h 14.8 km/h 63 % 0 mm
18:00 10.6 °C 4.1 °C 1007 hPa SSW 6.8 km/h 13 km/h 64 % 0 mm
18:05 10.6 °C 4.1 °C 1007 hPa SW 4.8 km/h 13 km/h 64 % 0 mm
18:09 10.6 °C 4 °C 1007 hPa SW 8.2 km/h 14.8 km/h 64 % 0 mm
18:18 10.6 °C 4 °C 1007 hPa SW 5.6 km/h 16.7 km/h 64 % 0 mm
18:23 10.6 °C 4.1 °C 1007 hPa SSW 7.1 km/h 13 km/h 64 % 0 mm
18:24 10.6 °C 4.1 °C 1007 hPa SW 9 km/h 14.8 km/h 64 % 0 mm
18:28 10.7 °C 4.1 °C 1007.3 hPa SW 9.2 km/h 12.9 km/h 64 % 0 mm
18:33 10.7 °C 4.1 °C 1007.3 hPa WSW 9.3 km/h 13 km/h 64 % 0 mm
18:34 10.7 °C 4.1 °C 1007.3 hPa SW 9.3 km/h 13 km/h 64 % 0 mm
18:38 10.7 °C 4.2 °C 1007 hPa SW 12.2 km/h 13 km/h 64 % 0 mm
18:40 10.7 °C 4.2 °C 1007 hPa SSW 6.4 km/h 25.9 km/h 64 % 0 mm
18:45 10.8 °C 4.2 °C 1007 hPa WSW 12.1 km/h 20.4 km/h 64 % 0 mm
18:46 10.8 °C 4.2 °C 1007 hPa South 13.8 km/h 22.5 km/h 64 % 0 mm
18:51 10.8 °C 4.3 °C 1007 hPa SW 11.7 km/h 18.5 km/h 64 % 0 mm
18:54 10.8 °C 4.5 °C 1007 hPa SW 13.5 km/h 18.5 km/h 65 % 0 mm
18:58 10.9 °C 4.6 °C 1007 hPa SW 6.4 km/h 18.5 km/h 65 % 0 mm
19:03 10.9 °C 4.6 °C 1007 hPa WSW 11.6 km/h 18.5 km/h 65 % 0 mm
19:05 10.9 °C 4.6 °C 1006.7 hPa WSW 10.8 km/h 14.5 km/h 65 % 0 mm
19:06 10.9 °C 4.6 °C 1006.7 hPa WSW 12.1 km/h 22.5 km/h 65 % 0 mm
19:11 10.9 °C 4.6 °C 1006.7 hPa SW 12.1 km/h 22.2 km/h 65 % 0 mm
19:12 10.9 °C 4.6 °C 1006.7 hPa SW 11.4 km/h 18.5 km/h 65 % 0 mm
19:13 10.9 °C 4.6 °C 1006.7 hPa SW 18.8 km/h 22.5 km/h 65 % 0 mm
19:19 10.9 °C 4.6 °C 1006.7 hPa SSW 6.9 km/h 20.4 km/h 65 % 0 mm
19:20 10.9 °C 4.6 °C 1006.7 hPa SW 13.4 km/h 18.5 km/h 65 % 0 mm
19:25 10.9 °C 4.6 °C 1006.7 hPa SSW 14.6 km/h 25.9 km/h 65 % 0 mm
19:30 10.9 °C 4.6 °C 1006.7 hPa SW 13.4 km/h 19.3 km/h 65 % 0 mm
19:35 10.9 °C 4.6 °C 1006.7 hPa SW 15.1 km/h 22.5 km/h 65 % 0 mm
19:36 10.9 °C 4.6 °C 1006.7 hPa SSW 13.5 km/h 22.2 km/h 65 % 0 mm
19:41 10.9 °C 4.6 °C 1006.7 hPa SW 10 km/h 22.2 km/h 65 % 0 mm
19:43 10.9 °C 4.6 °C 1006.7 hPa SSW 5.8 km/h 24.1 km/h 65 % 0 mm
19:48 10.9 °C 4.6 °C 1006.7 hPa SSW 14.5 km/h 24.1 km/h 65 % 0 mm
19:53 10.9 °C 4.6 °C 1006.7 hPa SW 12.6 km/h 30.6 km/h 65 % 0 mm
19:55 10.9 °C 4.6 °C 1006.3 hPa SSW 12.9 km/h 20.4 km/h 65 % 0 mm
20:00 10.8 °C 4.5 °C 1006.7 hPa WSW 11.1 km/h 14.8 km/h 65 % 0 mm
20:01 10.8 °C 4.5 °C 1006.3 hPa SW 14.8 km/h 24.1 km/h 65 % 0 mm
20:06 10.8 °C 4.5 °C 1006.3 hPa SW 9 km/h 18.5 km/h 65 % 0 mm
20:07 10.8 °C 4.5 °C 1006.3 hPa SSW 8.4 km/h 18.5 km/h 65 % 0 mm
20:12 10.8 °C 4.5 °C 1006.3 hPa WSW 8.4 km/h 19.3 km/h 65 % 0 mm
20:13 10.8 °C 4.5 °C 1006.3 hPa South 10.8 km/h 20.9 km/h 65 % 0 mm
20:18 10.8 °C 4.4 °C 1006.3 hPa South 12.6 km/h 27.4 km/h 65 % 0 mm
20:19 10.8 °C 4.4 °C 1006.3 hPa SSW 14.5 km/h 27.8 km/h 65 % 0 mm
20:24 10.8 °C 4.4 °C 1006.7 hPa SSW 10.1 km/h 16.7 km/h 65 % 0 mm
20:25 10.8 °C 4.4 °C 1006.7 hPa SW 10.5 km/h 16.7 km/h 65 % 0 mm
20:30 10.7 °C 4.4 °C 1006.3 hPa South 8.9 km/h 16.7 km/h 65 % 0 mm
20:35 10.7 °C 4.3 °C 1006.3 hPa West 13.8 km/h 25.9 km/h 65 % 0 mm
20:40 10.7 °C 4.3 °C 1006.3 hPa South 12.9 km/h 18.5 km/h 65 % 0 mm
20:42 10.7 °C 4.3 °C 1006.3 hPa SW 14.5 km/h 22.5 km/h 65 % 0 mm
20:47 10.6 °C 4.3 °C 1006 hPa SSW 10.5 km/h 16.7 km/h 65 % 0 mm
20:48 10.6 °C 4.3 °C 1006 hPa SW 13.4 km/h 29.6 km/h 65 % 0 mm
20:49 10.6 °C 4.3 °C 1006 hPa SW 14.2 km/h 27.8 km/h 65 % 0 mm
20:54 10.6 °C 4.2 °C 1006.3 hPa SSW 8.5 km/h 16.7 km/h 65 % 0 mm
20:56 10.6 °C 4.2 °C 1006 hPa SSW 8 km/h 14.8 km/h 65 % 0 mm
21:01 10.6 °C 4.2 °C 1006 hPa SW 15.1 km/h 24.1 km/h 65 % 0 mm
21:03 10.5 °C 4.2 °C 1006 hPa SW 10.9 km/h 16.7 km/h 65 % 0 mm
21:08 10.5 °C 4.2 °C 1006 hPa SW 9 km/h 27.4 km/h 65 % 0 mm
21:09 10.5 °C 4.2 °C 1005.6 hPa SSW 13 km/h 27.8 km/h 65 % 0 mm
21:14 10.4 °C 4.2 °C 1006 hPa South 13.2 km/h 27.8 km/h 65 % 0 mm
21:19 10.4 °C 4.2 °C 1006 hPa South 11.7 km/h 18.5 km/h 65 % 0 mm
21:22 10.4 °C 4.1 °C 1006 hPa SW 12.9 km/h 17.7 km/h 65 % 0 mm
21:26 10.4 °C 4.1 °C 1006 hPa SW 13.5 km/h 16.7 km/h 65 % 0 mm
21:31 10.4 °C 4.1 °C 1006 hPa SSW 9.7 km/h 22.5 km/h 65 % 0 mm
21:35 10.3 °C 4.3 °C 1006 hPa SSW 9.2 km/h 29.6 km/h 66 % 0 mm
21:40 10.3 °C 4.2 °C 1006 hPa SW 10.8 km/h 14.8 km/h 66 % 0 mm
21:45 10.3 °C 4.2 °C 1006 hPa SW 12.4 km/h 22.2 km/h 66 % 0 mm
21:46 10.3 °C 4.2 °C 1006 hPa SW 9 km/h 22.2 km/h 66 % 0 mm
21:49 10.3 °C 4.2 °C 1006 hPa South 8.2 km/h 14.8 km/h 66 % 0 mm
21:51 10.2 °C 4.2 °C 1006 hPa SSW 13 km/h 27.4 km/h 66 % 0 mm
21:56 10.3 °C 4.2 °C 1005.6 hPa SW 10.9 km/h 11.3 km/h 66 % 0 mm
22:01 10.2 °C 4.2 °C 1005.6 hPa WSW 11.7 km/h 18.5 km/h 66 % 0 mm
22:05 10.2 °C 4.2 °C 1005.6 hPa SSW 12.1 km/h 16.7 km/h 66 % 0 mm
22:06 10.2 °C 4.2 °C 1005.6 hPa SSW 11.3 km/h 25.7 km/h 66 % 0 mm
22:12 10.2 °C 4.1 °C 1005.6 hPa South 11.9 km/h 20.9 km/h 66 % 0 mm
22:17 10.2 °C 4.1 °C 1005.6 hPa SSW 7.1 km/h 20.9 km/h 66 % 0 mm
22:18 10.1 °C 4.1 °C 1005.6 hPa SSW 8.9 km/h 20.4 km/h 66 % 0 mm
22:23 10.1 °C 4 °C 1005.6 hPa SSW 7.9 km/h 13 km/h 66 % 0 mm
22:24 10.1 °C 4 °C 1005.6 hPa SW 8.4 km/h 13 km/h 66 % 0 mm
22:28 10.1 °C 4 °C 1005.6 hPa SSW 8.5 km/h 20.4 km/h 66 % 0 mm
22:34 10 °C 4.2 °C 1005.6 hPa SSW 8.5 km/h 16.7 km/h 67 % 0 mm
22:37 10 °C 4.2 °C 1005.6 hPa South 9.7 km/h 24.1 km/h 67 % 0 mm
22:42 10 °C 4.2 °C 1005.6 hPa WSW 7.4 km/h 18.5 km/h 67 % 0 mm
22:47 10 °C 3.9 °C 1005.6 hPa SSE 12.7 km/h 20.4 km/h 66 % 0 mm
22:48 10 °C 3.9 °C 1005.6 hPa SW 11.3 km/h 18.5 km/h 66 % 0 mm
22:53 10 °C 3.9 °C 1005.6 hPa SW 8.7 km/h 18.5 km/h 66 % 0 mm
22:56 10 °C 3.9 °C 1005.3 hPa SSW 4.8 km/h 19.3 km/h 66 % 0 mm
22:58 10 °C 3.9 °C 1005.6 hPa WSW 9 km/h 22.2 km/h 66 % 0 mm
23:03 10 °C 3.9 °C 1005.6 hPa SSW 9.7 km/h 18.5 km/h 66 % 0 mm
23:05 10 °C 3.9 °C 1005.6 hPa SW 8 km/h 18.5 km/h 66 % 0 mm
23:07 10 °C 3.9 °C 1005.6 hPa SW 5.5 km/h 11.1 km/h 66 % 0 mm
23:11 10 °C 3.9 °C 1005.6 hPa SSW 10.1 km/h 20.4 km/h 66 % 0 mm
23:16 10 °C 3.9 °C 1006 hPa SW 4.8 km/h 22.5 km/h 66 % 0 mm
23:18 10 °C 3.9 °C 1005.6 hPa SSW 8.4 km/h 18.5 km/h 66 % 0 mm
23:23 10 °C 3.9 °C 1005.6 hPa SW 7.9 km/h 16.7 km/h 66 % 0 mm
23:28 9.9 °C 3.9 °C 1005.6 hPa SSW 5.3 km/h 11.1 km/h 66 % 0 mm
23:29 9.9 °C 3.9 °C 1005.6 hPa SSW 4.8 km/h 12.9 km/h 66 % 0 mm
23:34 9.9 °C 3.9 °C 1005.3 hPa SSW 8.5 km/h 13 km/h 66 % 0 mm
23:37 9.9 °C 3.9 °C 1005.3 hPa SSW 5.6 km/h 18.5 km/h 66 % 0 mm
23:39 9.9 °C 3.9 °C 1005.3 hPa WSW 6.4 km/h 11.1 km/h 66 % 0 mm
23:43 9.9 °C 3.8 °C 1005.3 hPa SSW 5.5 km/h 11.3 km/h 66 % 0 mm
23:48 9.8 °C 3.8 °C 1005.3 hPa West 9.7 km/h 13 km/h 66 % 0 mm
23:51 9.8 °C 3.8 °C 1005.3 hPa SW 3.4 km/h 9.3 km/h 66 % 0 mm
23:55 9.8 °C 3.8 °C 1005.3 hPa West 6 km/h 11.1 km/h 66 % 0 mm
23:57 9.8 °C 3.8 °C 1005 hPa SSW 3.5 km/h 9.3 km/h 66 % 0 mm
Crab Meadow Weather
Compliments of Weather Underground - 4 mb

Script developed by  Jim McMurry - jmcmurry@mwt.net Adapted for the template by  Wim van der Kuil - Leuven-Template.eu

Astronomy: The light of the Sun takes 8 minutes to reach Earth.